sensor_id;sensor_type;location;lat;lon;timestamp;pressure;altitude;pressure_sealevel;temperature;humidity
71996;BME280;59862;47.732;7.346;2023-11-19T00:00:02;98384.72;;;8.77;100.00
71996;BME280;59862;47.732;7.346;2023-11-19T00:02:31;98380.03;;;8.75;100.00
71996;BME280;59862;47.732;7.346;2023-11-19T00:04:58;98368.64;;;8.65;100.00
71996;BME280;59862;47.732;7.346;2023-11-19T00:07:25;98365.32;;;8.75;100.00
71996;BME280;59862;47.732;7.346;2023-11-19T00:09:53;98364.52;;;8.79;100.00
71996;BME280;59862;47.732;7.346;2023-11-19T00:12:21;98359.34;;;8.81;100.00
71996;BME280;59862;47.732;7.346;2023-11-19T00:14:48;98341.59;;;8.80;100.00
71996;BME280;59862;47.732;7.346;2023-11-19T00:17:17;98324.20;;;8.84;100.00
71996;BME280;59862;47.732;7.346;2023-11-19T00:19:44;98322.88;;;8.88;100.00
71996;BME280;59862;47.732;7.346;2023-11-19T00:22:12;98294.63;;;8.90;100.00
71996;BME280;59862;47.732;7.346;2023-11-19T00:24:40;98294.63;;;8.90;100.00
71996;BME280;59862;47.732;7.346;2023-11-19T00:27:08;98298.16;;;9.02;100.00
71996;BME280;59862;47.732;7.346;2023-11-19T00:29:35;98298.16;;;9.02;100.00
71996;BME280;59862;47.732;7.346;2023-11-19T00:32:03;98303.98;;;9.14;100.00
71996;BME280;59862;47.732;7.346;2023-11-19T00:34:32;98302.67;;;9.26;100.00
71996;BME280;59862;47.732;7.346;2023-11-19T00:36:59;98289.76;;;9.38;100.00
71996;BME280;59862;47.732;7.346;2023-11-19T00:39:26;98293.80;;;9.42;100.00
71996;BME280;59862;47.732;7.346;2023-11-19T00:41:54;98297.80;;;9.50;100.00
71996;BME280;59862;47.732;7.346;2023-11-19T00:44:21;98294.42;;;9.60;100.00
71996;BME280;59862;47.732;7.346;2023-11-19T00:46:49;98297.77;;;9.62;100.00
71996;BME280;59862;47.732;7.346;2023-11-19T00:49:16;98277.33;;;9.69;100.00
71996;BME280;59862;47.732;7.346;2023-11-19T00:51:44;98268.45;;;9.76;100.00
71996;BME280;59862;47.732;7.346;2023-11-19T00:54:12;98257.86;;;9.87;100.00
71996;BME280;59862;47.732;7.346;2023-11-19T00:56:39;98266.73;;;9.91;100.00
71996;BME280;59862;47.732;7.346;2023-11-19T00:59:06;98261.19;;;9.93;100.00
71996;BME280;59862;47.732;7.346;2023-11-19T01:01:34;98226.82;;;9.97;100.00
71996;BME280;59862;47.732;7.346;2023-11-19T01:04:01;98237.02;;;10.01;100.00
71996;BME280;59862;47.732;7.346;2023-11-19T01:06:30;98235.70;;;9.97;100.00
71996;BME280;59862;47.732;7.346;2023-11-19T01:08:58;98241.91;;;9.98;100.00
71996;BME280;59862;47.732;7.346;2023-11-19T01:11:26;98244.38;;;10.03;100.00
71996;BME280;59862;47.732;7.346;2023-11-19T01:13:54;98241.23;;;10.00;100.00
71996;BME280;59862;47.732;7.346;2023-11-19T01:16:22;98232.69;;;10.00;100.00
71996;BME280;59862;47.732;7.346;2023-11-19T01:18:50;98230.67;;;10.02;100.00
71996;BME280;59862;47.732;7.346;2023-11-19T01:21:17;98234.85;;;10.05;100.00
71996;BME280;59862;47.732;7.346;2023-11-19T01:23:45;98245.41;;;10.02;100.00
71996;BME280;59862;47.732;7.346;2023-11-19T01:26:12;98260.78;;;10.16;100.00
71996;BME280;59862;47.732;7.346;2023-11-19T01:28:41;98262.10;;;10.20;100.00
71996;BME280;59862;47.732;7.346;2023-11-19T01:31:14;98257.58;;;10.21;100.00
71996;BME280;59862;47.732;7.346;2023-11-19T01:33:39;98261.72;;;10.31;100.00
71996;BME280;59862;47.732;7.346;2023-11-19T01:36:08;98278.81;;;10.34;100.00
71996;BME280;59862;47.732;7.346;2023-11-19T01:38:37;98278.16;;;10.32;100.00
71996;BME280;59862;47.732;7.346;2023-11-19T01:41:04;98269.06;;;10.41;100.00
71996;BME280;59862;47.732;7.346;2023-11-19T01:43:36;98279.45;;;10.40;100.00
71996;BME280;59862;47.732;7.346;2023-11-19T01:46:05;98285.17;;;10.33;100.00
71996;BME280;59862;47.732;7.346;2023-11-19T01:48:35;98292.41;;;10.33;100.00
71996;BME280;59862;47.732;7.346;2023-11-19T01:51:06;98293.59;;;10.30;100.00
71996;BME280;59862;47.732;7.346;2023-11-19T01:53:36;98285.95;;;10.15;100.00
71996;BME280;59862;47.732;7.346;2023-11-19T01:56:05;98281.94;;;10.11;100.00
71996;BME280;59862;47.732;7.346;2023-11-19T01:58:36;98277.87;;;10.07;100.00
71996;BME280;59862;47.732;7.346;2023-11-19T02:01:06;98270.39;;;9.94;100.00
71996;BME280;59862;47.732;7.346;2023-11-19T02:03:34;98267.06;;;9.88;100.00
71996;BME280;59862;47.732;7.346;2023-11-19T02:06:02;98265.59;;;9.78;100.00
71996;BME280;59862;47.732;7.346;2023-11-19T02:08:30;98244.16;;;9.78;100.00
71996;BME280;59862;47.732;7.346;2023-11-19T02:10:58;98237.80;;;9.71;100.00
71996;BME280;59862;47.732;7.346;2023-11-19T02:13:27;98235.84;;;9.57;100.00
71996;BME280;59862;47.732;7.346;2023-11-19T02:15:55;98241.69;;;9.60;100.00
71996;BME280;59862;47.732;7.346;2023-11-19T02:18:24;98235.17;;;9.59;100.00
71996;BME280;59862;47.732;7.346;2023-11-19T02:20:55;98241.67;;;9.64;100.00
71996;BME280;59862;47.732;7.346;2023-11-19T02:23:22;98240.17;;;9.62;100.00
71996;BME280;59862;47.732;7.346;2023-11-19T02:28:33;98258.26;;;9.60;100.00
71996;BME280;59862;47.732;7.346;2023-11-19T02:31:01;98258.26;;;9.60;100.00
71996;BME280;59862;47.732;7.346;2023-11-19T02:33:30;98265.47;;;9.63;100.00
71996;BME280;59862;47.732;7.346;2023-11-19T02:35:57;98277.34;;;9.65;100.00
71996;BME280;59862;47.732;7.346;2023-11-19T02:38:25;98266.30;;;9.60;100.00
71996;BME280;59862;47.732;7.346;2023-11-19T02:40:53;98261.95;;;9.63;100.00
71996;BME280;59862;47.732;7.346;2023-11-19T02:43:20;98262.59;;;9.69;100.00
71996;BME280;59862;47.732;7.346;2023-11-19T02:45:47;98255.22;;;9.71;100.00
71996;BME280;59862;47.732;7.346;2023-11-19T02:48:15;98277.68;;;9.70;100.00
71996;BME280;59862;47.732;7.346;2023-11-19T02:50:43;98273.66;;;9.70;100.00
71996;BME280;59862;47.732;7.346;2023-11-19T02:53:10;98268.45;;;9.68;100.00
71996;BME280;59862;47.732;7.346;2023-11-19T02:55:39;98266.13;;;9.65;100.00
71996;BME280;59862;47.732;7.346;2023-11-19T02:58:07;98267.09;;;9.72;100.00
71996;BME280;59862;47.732;7.346;2023-11-19T03:00:39;98271.63;;;9.76;100.00
71996;BME280;59862;47.732;7.346;2023-11-19T03:03:07;98265.41;;;9.79;100.00
71996;BME280;59862;47.732;7.346;2023-11-19T03:05:38;98273.95;;;9.87;100.00
71996;BME280;59862;47.732;7.346;2023-11-19T03:08:07;98275.93;;;9.93;100.00
71996;BME280;59862;47.732;7.346;2023-11-19T03:10:34;98276.91;;;10.04;100.00
71996;BME280;59862;47.732;7.346;2023-11-19T03:13:02;98278.27;;;10.00;100.00
71996;BME280;59862;47.732;7.346;2023-11-19T03:15:30;98274.04;;;10.06;100.00
71996;BME280;59862;47.732;7.346;2023-11-19T03:17:58;98281.09;;;10.07;100.00
71996;BME280;59862;47.732;7.346;2023-11-19T03:20:25;98276.20;;;10.10;100.00
71996;BME280;59862;47.732;7.346;2023-11-19T03:22:54;98268.52;;;10.15;100.00
71996;BME280;59862;47.732;7.346;2023-11-19T03:25:21;98274.67;;;10.24;100.00
71996;BME280;59862;47.732;7.346;2023-11-19T03:27:49;98277.17;;;10.25;100.00
71996;BME280;59862;47.732;7.346;2023-11-19T03:30:16;98290.88;;;10.34;100.00
71996;BME280;59862;47.732;7.346;2023-11-19T03:32:44;98289.19;;;10.41;100.00
71996;BME280;59862;47.732;7.346;2023-11-19T03:35:11;98288.39;;;10.59;100.00
71996;BME280;59862;47.732;7.346;2023-11-19T03:37:38;98287.73;;;10.57;100.00
71996;BME280;59862;47.732;7.346;2023-11-19T03:40:06;98286.72;;;10.62;100.00
71996;BME280;59862;47.732;7.346;2023-11-19T03:42:34;98287.00;;;10.72;100.00
71996;BME280;59862;47.732;7.346;2023-11-19T03:45:01;98283.94;;;10.75;100.00
71996;BME280;59862;47.732;7.346;2023-11-19T03:47:31;98293.84;;;10.78;100.00
71996;BME280;59862;47.732;7.346;2023-11-19T03:49:58;98283.38;;;10.83;100.00
71996;BME280;59862;47.732;7.346;2023-11-19T03:52:25;98283.38;;;10.83;100.00
71996;BME280;59862;47.732;7.346;2023-11-19T03:54:56;98282.88;;;10.84;100.00
71996;BME280;59862;47.732;7.346;2023-11-19T03:57:24;98295.30;;;10.85;100.00
71996;BME280;59862;47.732;7.346;2023-11-19T03:59:52;98298.80;;;10.85;100.00
71996;BME280;59862;47.732;7.346;2023-11-19T04:02:19;98298.80;;;10.85;100.00
71996;BME280;59862;47.732;7.346;2023-11-19T04:04:46;98274.45;;;10.91;100.00
71996;BME280;59862;47.732;7.346;2023-11-19T04:07:15;98274.45;;;10.91;100.00
71996;BME280;59862;47.732;7.346;2023-11-19T04:09:42;98277.30;;;10.93;100.00
71996;BME280;59862;47.732;7.346;2023-11-19T04:12:10;98285.47;;;11.00;100.00
71996;BME280;59862;47.732;7.346;2023-11-19T04:14:37;98278.59;;;10.97;100.00
71996;BME280;59862;47.732;7.346;2023-11-19T04:17:04;98273.42;;;10.96;100.00
71996;BME280;59862;47.732;7.346;2023-11-19T04:19:32;98271.89;;;10.97;100.00
71996;BME280;59862;47.732;7.346;2023-11-19T04:21:59;98270.70;;;11.00;100.00
71996;BME280;59862;47.732;7.346;2023-11-19T04:24:27;98264.30;;;11.01;100.00
71996;BME280;59862;47.732;7.346;2023-11-19T04:26:54;98260.20;;;11.09;100.00
71996;BME280;59862;47.732;7.346;2023-11-19T04:29:21;98249.80;;;11.10;100.00
71996;BME280;59862;47.732;7.346;2023-11-19T04:31:49;98268.37;;;11.15;100.00
71996;BME280;59862;47.732;7.346;2023-11-19T04:34:16;98270.86;;;11.21;100.00
71996;BME280;59862;47.732;7.346;2023-11-19T04:36:44;98270.86;;;11.21;100.00
71996;BME280;59862;47.732;7.346;2023-11-19T04:39:11;98264.49;;;11.18;100.00
71996;BME280;59862;47.732;7.346;2023-11-19T04:41:47;98266.17;;;11.19;100.00
71996;BME280;59862;47.732;7.346;2023-11-19T04:44:21;98264.14;;;11.21;100.00
71996;BME280;59862;47.732;7.346;2023-11-19T04:46:48;98283.91;;;11.28;100.00
71996;BME280;59862;47.732;7.346;2023-11-19T04:49:16;98290.73;;;11.34;100.00
71996;BME280;59862;47.732;7.346;2023-11-19T04:51:46;98290.73;;;11.34;100.00
71996;BME280;59862;47.732;7.346;2023-11-19T04:54:14;98279.75;;;11.40;100.00
71996;BME280;59862;47.732;7.346;2023-11-19T04:56:45;98274.38;;;11.40;100.00
71996;BME280;59862;47.732;7.346;2023-11-19T04:59:13;98272.30;;;11.46;100.00
71996;BME280;59862;47.732;7.346;2023-11-19T05:01:41;98260.45;;;11.40;100.00
71996;BME280;59862;47.732;7.346;2023-11-19T05:04:08;98267.96;;;11.45;100.00
71996;BME280;59862;47.732;7.346;2023-11-19T05:06:36;98270.69;;;11.41;100.00
71996;BME280;59862;47.732;7.346;2023-11-19T05:09:04;98266.13;;;11.41;100.00
71996;BME280;59862;47.732;7.346;2023-11-19T05:11:33;98267.66;;;11.40;100.00
71996;BME280;59862;47.732;7.346;2023-11-19T05:14:03;98267.66;;;11.40;100.00
71996;BME280;59862;47.732;7.346;2023-11-19T05:16:30;98262.89;;;11.46;100.00
71996;BME280;59862;47.732;7.346;2023-11-19T05:18:58;98274.64;;;11.49;100.00
71996;BME280;59862;47.732;7.346;2023-11-19T05:21:25;98275.98;;;11.49;100.00
71996;BME280;59862;47.732;7.346;2023-11-19T05:23:53;98279.97;;;11.53;100.00
71996;BME280;59862;47.732;7.346;2023-11-19T05:26:21;98280.36;;;11.46;100.00
71996;BME280;59862;47.732;7.346;2023-11-19T05:28:49;98280.36;;;11.46;100.00
71996;BME280;59862;47.732;7.346;2023-11-19T05:31:18;98284.50;;;11.53;100.00
71996;BME280;59862;47.732;7.346;2023-11-19T05:33:46;98287.84;;;11.55;100.00
71996;BME280;59862;47.732;7.346;2023-11-19T05:36:13;98282.95;;;11.58;100.00
71996;BME280;59862;47.732;7.346;2023-11-19T05:38:41;98290.59;;;11.65;100.00
71996;BME280;59862;47.732;7.346;2023-11-19T05:41:08;98290.59;;;11.65;100.00
71996;BME280;59862;47.732;7.346;2023-11-19T05:43:36;98282.01;;;11.70;100.00
71996;BME280;59862;47.732;7.346;2023-11-19T05:46:05;98268.44;;;11.63;100.00
71996;BME280;59862;47.732;7.346;2023-11-19T05:48:33;98263.58;;;11.67;100.00
71996;BME280;59862;47.732;7.346;2023-11-19T05:51:00;98264.41;;;11.63;100.00
71996;BME280;59862;47.732;7.346;2023-11-19T05:53:28;98275.80;;;11.65;100.00
71996;BME280;59862;47.732;7.346;2023-11-19T05:55:55;98274.59;;;11.72;100.00
71996;BME280;59862;47.732;7.346;2023-11-19T05:58:25;98282.16;;;11.72;100.00
71996;BME280;59862;47.732;7.346;2023-11-19T06:00:56;98282.55;;;11.69;100.00
71996;BME280;59862;47.732;7.346;2023-11-19T06:03:24;98286.38;;;11.71;100.00
71996;BME280;59862;47.732;7.346;2023-11-19T06:05:51;98284.48;;;11.75;100.00
71996;BME280;59862;47.732;7.346;2023-11-19T06:08:21;98283.19;;;11.71;100.00
71996;BME280;59862;47.732;7.346;2023-11-19T06:10:48;98293.10;;;11.71;100.00
71996;BME280;59862;47.732;7.346;2023-11-19T06:13:17;98282.85;;;11.70;100.00
71996;BME280;59862;47.732;7.346;2023-11-19T06:15:45;98281.80;;;11.75;100.00
71996;BME280;59862;47.732;7.346;2023-11-19T06:18:13;98285.04;;;11.71;100.00
71996;BME280;59862;47.732;7.346;2023-11-19T06:20:41;98281.46;;;11.74;100.00
71996;BME280;59862;47.732;7.346;2023-11-19T06:23:09;98274.44;;;11.73;100.00
71996;BME280;59862;47.732;7.346;2023-11-19T06:25:36;98277.67;;;11.69;100.00
71996;BME280;59862;47.732;7.346;2023-11-19T06:28:04;98270.95;;;11.69;100.00
71996;BME280;59862;47.732;7.346;2023-11-19T06:30:32;98279.33;;;11.66;100.00
71996;BME280;59862;47.732;7.346;2023-11-19T06:32:59;98280.77;;;11.76;100.00
71996;BME280;59862;47.732;7.346;2023-11-19T06:35:27;98280.77;;;11.76;100.00
71996;BME280;59862;47.732;7.346;2023-11-19T06:37:56;98283.50;;;11.72;100.00
71996;BME280;59862;47.732;7.346;2023-11-19T06:40:23;98280.81;;;11.72;100.00
71996;BME280;59862;47.732;7.346;2023-11-19T06:42:51;98278.08;;;11.76;100.00
71996;BME280;59862;47.732;7.346;2023-11-19T06:45:19;98274.78;;;11.70;100.00
71996;BME280;59862;47.732;7.346;2023-11-19T06:47:46;98263.34;;;11.72;100.00
71996;BME280;59862;47.732;7.346;2023-11-19T06:50:14;98266.62;;;11.78;100.00
71996;BME280;59862;47.732;7.346;2023-11-19T06:52:41;98266.62;;;11.78;100.00
71996;BME280;59862;47.732;7.346;2023-11-19T06:55:09;98263.94;;;11.78;100.00
71996;BME280;59862;47.732;7.346;2023-11-19T06:57:36;98271.36;;;11.76;100.00
71996;BME280;59862;47.732;7.346;2023-11-19T07:00:06;98273.69;;;11.79;100.00
71996;BME280;59862;47.732;7.346;2023-11-19T07:02:34;98278.02;;;11.84;100.00
71996;BME280;59862;47.732;7.346;2023-11-19T07:05:02;98276.38;;;11.79;100.00
71996;BME280;59862;47.732;7.346;2023-11-19T07:07:31;98272.64;;;11.84;100.00
71996;BME280;59862;47.732;7.346;2023-11-19T07:10:02;98274.00;;;11.80;100.00
71996;BME280;59862;47.732;7.346;2023-11-19T07:12:31;98277.67;;;11.83;100.00
71996;BME280;59862;47.732;7.346;2023-11-19T07:14:58;98276.08;;;11.74;100.00
71996;BME280;59862;47.732;7.346;2023-11-19T07:17:26;98282.76;;;11.78;100.00
71996;BME280;59862;47.732;7.346;2023-11-19T07:19:54;98284.05;;;11.86;100.00
71996;BME280;59862;47.732;7.346;2023-11-19T07:22:21;98297.80;;;11.87;100.00
71996;BME280;59862;47.732;7.346;2023-11-19T07:24:48;98306.51;;;11.89;100.00
71996;BME280;59862;47.732;7.346;2023-11-19T07:27:17;98308.55;;;11.87;100.00
71996;BME280;59862;47.732;7.346;2023-11-19T07:29:45;98315.56;;;11.92;100.00
71996;BME280;59862;47.732;7.346;2023-11-19T07:32:12;98315.87;;;11.93;100.00
71996;BME280;59862;47.732;7.346;2023-11-19T07:34:39;98313.23;;;11.89;100.00
71996;BME280;59862;47.732;7.346;2023-11-19T07:37:07;98315.17;;;11.95;100.00
71996;BME280;59862;47.732;7.346;2023-11-19T07:39:34;98321.30;;;11.89;100.00
71996;BME280;59862;47.732;7.346;2023-11-19T07:42:03;98323.98;;;11.89;100.00
71996;BME280;59862;47.732;7.346;2023-11-19T07:44:31;98319.50;;;11.86;100.00
71996;BME280;59862;47.732;7.346;2023-11-19T07:46:58;98326.62;;;11.97;100.00
71996;BME280;59862;47.732;7.346;2023-11-19T07:49:26;98326.32;;;11.92;100.00
71996;BME280;59862;47.732;7.346;2023-11-19T07:51:53;98332.55;;;12.07;100.00
71996;BME280;59862;47.732;7.346;2023-11-19T07:54:21;98332.55;;;12.07;100.00
71996;BME280;59862;47.732;7.346;2023-11-19T07:56:48;98336.29;;;12.02;100.00
71996;BME280;59862;47.732;7.346;2023-11-19T07:59:16;98340.06;;;12.12;100.00
71996;BME280;59862;47.732;7.346;2023-11-19T08:01:44;98338.52;;;12.13;100.00
71996;BME280;59862;47.732;7.346;2023-11-19T08:04:11;98344.21;;;12.00;100.00
71996;BME280;59862;47.732;7.346;2023-11-19T08:06:38;98332.55;;;12.07;100.00
71996;BME280;59862;47.732;7.346;2023-11-19T08:09:07;98339.52;;;12.16;100.00
71996;BME280;59862;47.732;7.346;2023-11-19T08:11:36;98347.10;;;12.13;100.00
71996;BME280;59862;47.732;7.346;2023-11-19T08:14:03;98338.87;;;12.14;100.00
71996;BME280;59862;47.732;7.346;2023-11-19T08:16:30;98331.45;;;12.16;100.00
71996;BME280;59862;47.732;7.346;2023-11-19T08:18:58;98339.83;;;12.17;100.00
71996;BME280;59862;47.732;7.346;2023-11-19T08:21:25;98340.81;;;12.21;100.00
71996;BME280;59862;47.732;7.346;2023-11-19T08:23:53;98338.72;;;12.27;100.00
71996;BME280;59862;47.732;7.346;2023-11-19T08:26:21;98340.52;;;12.15;100.00
71996;BME280;59862;47.732;7.346;2023-11-19T08:28:48;98349.33;;;12.24;100.00
71996;BME280;59862;47.732;7.346;2023-11-19T08:31:15;98343.79;;;12.26;100.00
71996;BME280;59862;47.732;7.346;2023-11-19T08:33:43;98346.37;;;12.34;100.00
71996;BME280;59862;47.732;7.346;2023-11-19T08:36:17;98346.14;;;12.25;100.00
71996;BME280;59862;47.732;7.346;2023-11-19T08:38:45;98337.73;;;12.24;100.00
71996;BME280;59862;47.732;7.346;2023-11-19T08:41:13;98345.88;;;12.34;100.00
71996;BME280;59862;47.732;7.346;2023-11-19T08:43:40;98345.98;;;12.37;100.00
71996;BME280;59862;47.732;7.346;2023-11-19T08:46:11;98333.02;;;12.40;100.00
71996;BME280;59862;47.732;7.346;2023-11-19T08:48:39;98339.49;;;12.46;100.00
71996;BME280;59862;47.732;7.346;2023-11-19T08:51:07;98334.45;;;12.47;100.00
71996;BME280;59862;47.732;7.346;2023-11-19T08:53:34;98335.84;;;12.43;100.00
71996;BME280;59862;47.732;7.346;2023-11-19T08:56:02;98330.54;;;12.35;100.00
71996;BME280;59862;47.732;7.346;2023-11-19T08:58:30;98338.00;;;12.43;100.00
71996;BME280;59862;47.732;7.346;2023-11-19T09:00:57;98339.55;;;12.42;100.00
71996;BME280;59862;47.732;7.346;2023-11-19T09:03:25;98340.28;;;12.50;100.00
71996;BME280;59862;47.732;7.346;2023-11-19T09:05:53;98347.06;;;12.46;100.00
71996;BME280;59862;47.732;7.346;2023-11-19T09:08:21;98343.27;;;12.41;100.00
71996;BME280;59862;47.732;7.346;2023-11-19T09:10:48;98341.09;;;12.40;100.00
71996;BME280;59862;47.732;7.346;2023-11-19T09:13:15;98344.38;;;12.46;100.00
71996;BME280;59862;47.732;7.346;2023-11-19T09:15:43;98350.66;;;12.43;100.00
71996;BME280;59862;47.732;7.346;2023-11-19T09:18:10;98345.91;;;12.45;100.00
71996;BME280;59862;47.732;7.346;2023-11-19T09:20:38;98353.09;;;12.48;100.00
71996;BME280;59862;47.732;7.346;2023-11-19T09:23:06;98353.88;;;12.53;100.00
71996;BME280;59862;47.732;7.346;2023-11-19T09:25:35;98349.79;;;12.57;100.00
71996;BME280;59862;47.732;7.346;2023-11-19T09:28:02;98352.20;;;12.52;100.00
71996;BME280;59862;47.732;7.346;2023-11-19T09:30:30;98350.83;;;12.56;100.00
71996;BME280;59862;47.732;7.346;2023-11-19T09:32:59;98356.05;;;12.68;100.00
71996;BME280;59862;47.732;7.346;2023-11-19T09:35:26;98345.39;;;12.60;100.00
71996;BME280;59862;47.732;7.346;2023-11-19T09:37:54;98349.88;;;12.63;100.00
71996;BME280;59862;47.732;7.346;2023-11-19T09:40:21;98352.70;;;12.66;100.00
71996;BME280;59862;47.732;7.346;2023-11-19T09:42:49;98359.16;;;12.61;100.00
71996;BME280;59862;47.732;7.346;2023-11-19T09:45:17;98367.80;;;12.71;100.00
71996;BME280;59862;47.732;7.346;2023-11-19T09:47:47;98368.89;;;12.76;100.00
71996;BME280;59862;47.732;7.346;2023-11-19T09:50:17;98365.05;;;12.75;100.00
71996;BME280;59862;47.732;7.346;2023-11-19T09:52:47;98366.31;;;12.68;100.00
71996;BME280;59862;47.732;7.346;2023-11-19T09:55:15;98376.83;;;12.74;100.00
71996;BME280;59862;47.732;7.346;2023-11-19T09:57:43;98375.53;;;12.70;100.00
71996;BME280;59862;47.732;7.346;2023-11-19T10:00:13;98375.17;;;12.73;100.00
71996;BME280;59862;47.732;7.346;2023-11-19T10:02:41;98374.14;;;12.74;100.00
71996;BME280;59862;47.732;7.346;2023-11-19T10:05:11;98372.48;;;12.73;100.00
71996;BME280;59862;47.732;7.346;2023-11-19T10:07:41;98376.47;;;12.77;100.00
71996;BME280;59862;47.732;7.346;2023-11-19T10:10:09;98376.88;;;12.70;100.00
71996;BME280;59862;47.732;7.346;2023-11-19T10:12:38;98370.04;;;12.78;100.00
71996;BME280;59862;47.732;7.346;2023-11-19T10:15:07;98359.61;;;12.79;100.00
71996;BME280;59862;47.732;7.346;2023-11-19T10:17:36;98368.39;;;12.77;100.00
71996;BME280;59862;47.732;7.346;2023-11-19T10:20:04;98351.89;;;12.76;100.00
71996;BME280;59862;47.732;7.346;2023-11-19T10:22:36;98352.76;;;12.87;100.00
71996;BME280;59862;47.732;7.346;2023-11-19T10:25:02;98358.54;;;12.84;100.00
71996;BME280;59862;47.732;7.346;2023-11-19T10:27:29;98352.31;;;12.83;100.00
71996;BME280;59862;47.732;7.346;2023-11-19T10:30:01;98353.52;;;12.81;100.00
71996;BME280;59862;47.732;7.346;2023-11-19T10:32:29;98359.19;;;12.86;100.00
71996;BME280;59862;47.732;7.346;2023-11-19T10:35:07;98351.96;;;12.97;100.00
71996;BME280;59862;47.732;7.346;2023-11-19T10:37:34;98351.69;;;12.92;100.00
71996;BME280;59862;47.732;7.346;2023-11-19T10:40:04;98347.45;;;12.93;100.00
71996;BME280;59862;47.732;7.346;2023-11-19T10:42:36;98339.00;;;12.97;100.00
71996;BME280;59862;47.732;7.346;2023-11-19T10:45:04;98326.88;;;12.97;100.00
71996;BME280;59862;47.732;7.346;2023-11-19T10:47:32;98331.09;;;12.95;100.00
71996;BME280;59862;47.732;7.346;2023-11-19T10:50:01;98334.86;;;13.05;100.00
71996;BME280;59862;47.732;7.346;2023-11-19T10:52:29;98333.34;;;13.02;100.00
71996;BME280;59862;47.732;7.346;2023-11-19T10:54:59;98327.62;;;13.05;100.00
71996;BME280;59862;47.732;7.346;2023-11-19T10:57:30;98324.53;;;13.08;100.00
71996;BME280;59862;47.732;7.346;2023-11-19T11:00:01;98310.63;;;13.15;100.00
71996;BME280;59862;47.732;7.346;2023-11-19T11:02:33;98313.52;;;13.14;100.00
71996;BME280;59862;47.732;7.346;2023-11-19T11:05:01;98310.69;;;13.11;100.00
71996;BME280;59862;47.732;7.346;2023-11-19T11:07:31;98306.58;;;13.15;100.00
71996;BME280;59862;47.732;7.346;2023-11-19T11:10:01;98295.09;;;13.17;100.00
71996;BME280;59862;47.732;7.346;2023-11-19T11:12:32;98297.78;;;13.28;100.00
71996;BME280;59862;47.732;7.346;2023-11-19T11:15:01;98300.81;;;13.18;100.00
71996;BME280;59862;47.732;7.346;2023-11-19T11:17:32;98299.97;;;13.28;100.00
71996;BME280;59862;47.732;7.346;2023-11-19T11:20:00;98300.68;;;13.26;100.00
71996;BME280;59862;47.732;7.346;2023-11-19T11:22:29;98295.73;;;13.19;100.00
71996;BME280;59862;47.732;7.346;2023-11-19T11:25:28;98304.45;;;13.21;100.00
71996;BME280;59862;47.732;7.346;2023-11-19T11:28:03;98310.11;;;13.26;100.00
71996;BME280;59862;47.732;7.346;2023-11-19T11:35:58;98280.97;;;13.26;100.00
71996;BME280;59862;47.732;7.346;2023-11-19T11:38:25;98278.48;;;13.24;100.00
71996;BME280;59862;47.732;7.346;2023-11-19T11:41:18;98273.09;;;13.24;100.00
71996;BME280;59862;47.732;7.346;2023-11-19T11:43:47;98265.64;;;13.26;100.00
71996;BME280;59862;47.732;7.346;2023-11-19T11:49:07;98252.44;;;13.31;100.00
71996;BME280;59862;47.732;7.346;2023-11-19T11:57:11;98248.13;;;13.26;100.00
71996;BME280;59862;47.732;7.346;2023-11-19T12:02:15;98243.25;;;13.26;100.00
71996;BME280;59862;47.732;7.346;2023-11-19T12:04:48;98233.95;;;13.28;100.00
71996;BME280;59862;47.732;7.346;2023-11-19T12:07:22;98241.84;;;13.40;100.00
71996;BME280;59862;47.732;7.346;2023-11-19T12:09:51;98239.78;;;13.42;100.00
71996;BME280;59862;47.732;7.346;2023-11-19T12:12:28;98250.09;;;13.39;100.00
71996;BME280;59862;47.732;7.346;2023-11-19T12:15:01;98247.53;;;13.41;100.00
71996;BME280;59862;47.732;7.346;2023-11-19T12:20:08;98260.73;;;13.57;100.00
71996;BME280;59862;47.732;7.346;2023-11-19T12:22:39;98274.03;;;13.48;100.00
71996;BME280;59862;47.732;7.346;2023-11-19T12:25:08;98260.48;;;13.52;100.00
71996;BME280;59862;47.732;7.346;2023-11-19T12:27:36;98263.44;;;13.57;100.00
71996;BME280;59862;47.732;7.346;2023-11-19T12:30:05;98254.86;;;13.64;100.00
71996;BME280;59862;47.732;7.346;2023-11-19T12:32:45;98250.98;;;13.74;100.00
71996;BME280;59862;47.732;7.346;2023-11-19T12:35:10;98260.63;;;13.72;100.00
71996;BME280;59862;47.732;7.346;2023-11-19T12:37:49;98257.98;;;13.79;100.00
71996;BME280;59862;47.732;7.346;2023-11-19T12:40:26;98255.58;;;13.90;100.00
71996;BME280;59862;47.732;7.346;2023-11-19T12:42:55;98244.41;;;14.00;100.00
71996;BME280;59862;47.732;7.346;2023-11-19T12:45:23;98250.85;;;13.99;100.00
71996;BME280;59862;47.732;7.346;2023-11-19T12:48:14;98243.61;;;13.89;100.00
71996;BME280;59862;47.732;7.346;2023-11-19T12:50:21;98242.68;;;13.86;100.00
71996;BME280;59862;47.732;7.346;2023-11-19T12:52:58;98236.75;;;13.86;100.00
71996;BME280;59862;47.732;7.346;2023-11-19T12:55:28;98239.31;;;13.94;100.00
71996;BME280;59862;47.732;7.346;2023-11-19T12:57:56;98229.66;;;13.96;100.00
71996;BME280;59862;47.732;7.346;2023-11-19T13:00:26;98241.00;;;14.02;100.00
71996;BME280;59862;47.732;7.346;2023-11-19T13:02:57;98232.39;;;14.02;100.00
71996;BME280;59862;47.732;7.346;2023-11-19T13:05:30;98234.67;;;13.99;100.00
71996;BME280;59862;47.732;7.346;2023-11-19T13:08:07;98229.91;;;14.01;100.00
71996;BME280;59862;47.732;7.346;2023-11-19T13:13:17;98233.86;;;14.05;100.00
71996;BME280;59862;47.732;7.346;2023-11-19T13:15:44;98233.09;;;14.17;100.00
71996;BME280;59862;47.732;7.346;2023-11-19T13:18:12;98244.64;;;14.22;100.00
71996;BME280;59862;47.732;7.346;2023-11-19T13:20:40;98238.73;;;14.22;100.00
71996;BME280;59862;47.732;7.346;2023-11-19T13:23:07;98246.28;;;14.23;100.00